Time;durP1;ratioP1;P1;durP2;ratioP2;P2;SDS_P1;SDS_P2;PMS_P1;PMS_P2;Temp;Humidity;BMP_temperature;BMP_pressure;BME280_temperature;BME280_humidity;BME280_pressure;Samples;Min_cycle;Max_cycle;Signal;HPM_P1;HPM_P2
2022/08/19 00:00:15;;;;;;;21.15;15.93;;;17.20;99.90;;;;;;5016295;28;20251;-65
2022/08/19 00:02:42;;;;;;;22.17;16.67;;;17.20;99.90;;;;;;5016459;28;20176;-65
2022/08/19 00:05:11;;;;;;;21.77;16.23;;;17.00;99.90;;;;;;5016084;28;20176;-65
2022/08/19 00:07:38;;;;;;;20.88;16.60;;;16.90;99.90;;;;;;5016011;28;20191;-65
2022/08/19 00:10:06;;;;;;;23.38;17.23;;;16.90;99.90;;;;;;5016293;28;20183;-66
2022/08/19 00:12:32;;;;;;;25.05;16.88;;;16.90;99.90;;;;;;5016403;28;20160;-65
2022/08/19 00:14:58;;;;;;;22.58;18.17;;;16.90;99.90;;;;;;5015783;28;20196;-65
2022/08/19 00:17:24;;;;;;;22.20;18.05;;;16.80;99.90;;;;;;5015765;28;20214;-66
2022/08/19 00:19:50;;;;;;;23.60;18.00;;;16.80;99.90;;;;;;5015557;28;20183;-65
2022/08/19 00:22:17;;;;;;;22.50;17.15;;;16.60;99.90;;;;;;5016129;28;20196;-65
2022/08/19 00:24:46;;;;;;;21.63;16.95;;;16.60;99.90;;;;;;5016125;28;20569;-64
2022/08/19 00:27:13;;;;;;;22.88;17.95;;;16.60;99.90;;;;;;5015724;28;20569;-63
2022/08/19 00:29:39;;;;;;;21.10;17.33;;;16.70;99.90;;;;;;5015585;28;20178;-64
2022/08/19 00:32:06;;;;;;;20.20;16.55;;;16.70;99.90;;;;;;5015475;28;20279;-63
2022/08/19 00:34:32;;;;;;;19.25;16.25;;;16.70;99.90;;;;;;5015441;28;20599;-64
2022/08/19 00:36:59;;;;;;;19.30;15.27;;;16.70;99.90;;;;;;4997988;28;20192;-64
2022/08/19 00:39:25;;;;;;;21.35;16.27;;;16.70;99.90;;;;;;5015498;28;20698;-64
2022/08/19 00:41:50;;;;;;;23.17;17.08;;;16.80;99.90;;;;;;4998000;28;20196;-64
2022/08/19 00:44:20;;;;;;;19.13;15.43;;;16.70;99.90;;;;;;5015573;28;20168;-64
2022/08/19 00:46:49;;;;;;;18.42;15.45;;;16.70;99.90;;;;;;5015890;28;20629;-64
2022/08/19 00:49:17;;;;;;;19.67;16.23;;;16.70;99.90;;;;;;5015316;28;20234;-65
2022/08/19 00:51:46;;;;;;;20.10;16.08;;;16.80;99.90;;;;;;4997528;28;20247;-65
2022/08/19 00:54:12;;;;;;;22.20;16.92;;;16.80;99.90;;;;;;4997566;28;20271;-66
2022/08/19 00:56:38;;;;;;;20.92;17.10;;;16.70;99.90;;;;;;5014998;28;20223;-65
2022/08/19 00:59:08;;;;;;;21.73;17.65;;;16.70;99.90;;;;;;4997349;28;20203;-65
2022/08/19 01:01:41;;;;;;;22.75;17.63;;;16.70;99.90;;;;;;5015116;28;20219;-65
2022/08/19 01:04:07;;;;;;;21.08;17.08;;;16.60;99.90;;;;;;5015268;28;20558;-66
2022/08/19 01:06:35;;;;;;;20.77;16.70;;;16.60;99.90;;;;;;4997573;28;20188;-65
2022/08/19 01:09:01;;;;;;;20.38;16.45;;;16.50;99.90;;;;;;5015137;28;20617;-69
2022/08/19 01:11:28;;;;;;;20.02;15.55;;;16.50;99.90;;;;;;5014921;28;20200;-65
2022/08/19 01:13:54;;;;;;;19.45;15.80;;;16.50;99.90;;;;;;5015375;28;20262;-65
2022/08/19 01:16:23;;;;;;;17.50;15.60;;;16.50;99.90;;;;;;5015142;28;20180;-65
2022/08/19 01:18:49;;;;;;;20.35;16.13;;;16.40;99.90;;;;;;5014648;28;20764;-66
2022/08/19 01:21:22;;;;;;;20.80;16.25;;;16.40;99.90;;;;;;5014396;28;20695;-65
2022/08/19 01:23:48;;;;;;;20.33;16.45;;;16.40;99.90;;;;;;4997151;28;20179;-65
2022/08/19 01:26:21;;;;;;;19.13;16.55;;;16.30;99.90;;;;;;5014944;28;20164;-65
2022/08/19 01:28:50;;;;;;;22.42;17.00;;;16.30;99.90;;;;;;5014893;28;20251;-65
2022/08/19 01:31:20;;;;;;;21.73;16.15;;;16.40;99.90;;;;;;4996914;28;20230;-65
2022/08/19 01:33:47;;;;;;;19.50;15.80;;;16.40;99.90;;;;;;4997011;28;20226;-65
2022/08/19 01:36:21;;;;;;;21.10;17.50;;;16.40;99.90;;;;;;4996620;28;20184;-65
2022/08/19 01:38:49;;;;;;;19.13;15.90;;;16.40;99.90;;;;;;4996854;28;20258;-65
2022/08/19 01:41:16;;;;;;;21.00;17.08;;;16.40;99.90;;;;;;5014091;28;20191;-65
2022/08/19 01:43:42;;;;;;;22.38;18.08;;;16.40;99.90;;;;;;5014402;28;20180;-65
2022/08/19 01:46:08;;;;;;;20.92;17.38;;;16.40;99.90;;;;;;4996896;28;20179;-65
2022/08/19 01:48:40;;;;;;;20.70;16.98;;;16.40;99.90;;;;;;5014803;28;20593;-66
2022/08/19 01:51:08;;;;;;;24.77;18.15;;;16.30;99.90;;;;;;5014109;28;20774;-65
2022/08/19 01:53:34;;;;;;;21.70;17.67;;;16.30;99.90;;;;;;5014112;28;20188;-65
2022/08/19 01:56:00;;;;;;;25.27;18.65;;;16.20;99.90;;;;;;5014146;28;20668;-65
2022/08/19 01:58:32;;;;;;;22.92;19.45;;;16.20;99.90;;;;;;5014098;28;20191;-65
2022/08/19 02:00:58;;;;;;;23.40;18.98;;;16.10;99.90;;;;;;5014200;28;20234;-65
2022/08/19 02:03:24;;;;;;;27.08;19.85;;;16.10;99.90;;;;;;4996448;28;20187;-65
2022/08/19 02:05:58;;;;;;;27.20;19.98;;;16.10;99.90;;;;;;5013958;28;20179;-65
2022/08/19 02:08:24;;;;;;;24.75;19.88;;;16.10;99.90;;;;;;5014442;28;20225;-65
2022/08/19 02:10:50;;;;;;;23.95;18.42;;;16.10;99.90;;;;;;4996696;28;20208;-65
2022/08/19 02:13:15;;;;;;;21.63;18.25;;;16.10;99.90;;;;;;5014572;28;20709;-67
2022/08/19 02:15:41;;;;;;;22.88;18.75;;;16.00;99.90;;;;;;4996719;28;20192;-65
2022/08/19 02:18:08;;;;;;;23.40;18.55;;;16.00;99.90;;;;;;5014083;28;20274;-65
2022/08/19 02:20:34;;;;;;;24.05;19.27;;;16.00;99.90;;;;;;5014019;28;20199;-65
2022/08/19 02:23:01;;;;;;;24.38;20.20;;;15.90;99.90;;;;;;5014299;28;20336;-65
2022/08/19 02:25:27;;;;;;;27.98;18.63;;;15.90;99.90;;;;;;5013935;28;20167;-65
2022/08/19 02:27:53;;;;;;;24.02;17.75;;;15.90;99.90;;;;;;5013994;28;20234;-65
2022/08/19 02:30:20;;;;;;;23.98;18.02;;;15.80;99.90;;;;;;5013782;28;20196;-65
2022/08/19 02:32:46;;;;;;;22.58;18.50;;;15.80;99.90;;;;;;5013494;28;20183;-65
2022/08/19 02:35:14;;;;;;;20.88;17.25;;;15.80;99.90;;;;;;5013680;28;20171;-65
2022/08/19 02:40:27;;;;;;;22.73;18.08;;;15.80;99.90;;;;;;5013798;28;20261;-65
2022/08/19 02:42:52;;;;;;;21.73;18.65;;;15.90;99.90;;;;;;5013699;28;20172;-65
2022/08/19 02:45:18;;;;;;;21.65;18.00;;;15.80;99.90;;;;;;5014176;28;20178;-65
2022/08/19 02:47:44;;;;;;;22.85;18.65;;;15.80;99.90;;;;;;4996019;28;20191;-65
2022/08/19 02:50:10;;;;;;;24.48;19.15;;;15.80;99.90;;;;;;5013731;28;20258;-65
2022/08/19 02:52:36;;;;;;;27.73;18.95;;;15.70;99.90;;;;;;5013716;28;20635;-66
2022/08/19 02:55:02;;;;;;;23.20;18.52;;;15.70;99.90;;;;;;5013658;28;20286;-65
2022/08/19 02:57:31;;;;;;;22.95;17.98;;;15.60;99.90;;;;;;5013537;28;20274;-66
2022/08/19 02:59:58;;;;;;;22.05;18.10;;;15.70;99.90;;;;;;5013445;28;20506;-65
2022/08/19 03:02:24;;;;;;;22.50;18.73;;;15.70;99.90;;;;;;4995743;28;20192;-66
2022/08/19 03:04:50;;;;;;;22.35;17.55;;;15.70;99.90;;;;;;5013211;28;20179;-65
2022/08/19 03:07:18;;;;;;;22.40;17.48;;;15.70;99.90;;;;;;4995632;28;20199;-65
2022/08/19 03:09:44;;;;;;;22.17;17.10;;;15.70;99.90;;;;;;5013321;28;20171;-65
2022/08/19 03:12:10;;;;;;;21.25;17.20;;;15.80;99.90;;;;;;5013261;28;20200;-64
2022/08/19 03:14:37;;;;;;;22.45;17.40;;;15.80;99.90;;;;;;5013157;28;20156;-64
2022/08/19 03:17:04;;;;;;;23.77;17.63;;;15.80;99.90;;;;;;5013270;28;20179;-65
2022/08/19 03:19:31;;;;;;;24.05;18.95;;;15.80;99.90;;;;;;5013070;28;20680;-65
2022/08/19 03:21:57;;;;;;;24.30;17.80;;;15.80;99.90;;;;;;5013240;28;20220;-65
2022/08/19 03:24:24;;;;;;;26.55;19.65;;;15.80;99.90;;;;;;5013352;28;20176;-65
2022/08/19 03:26:52;;;;;;;23.55;19.38;;;15.80;99.90;;;;;;4997710;28;20176;-65
2022/08/19 03:29:19;;;;;;;22.17;18.13;;;15.70;99.90;;;;;;4999188;28;20187;-66
2022/08/19 03:31:45;;;;;;;25.55;19.77;;;15.70;99.90;;;;;;5016550;28;20192;-65
2022/08/19 03:34:17;;;;;;;28.17;20.05;;;15.70;99.90;;;;;;5016606;28;20182;-65
2022/08/19 03:36:44;;;;;;;24.63;19.27;;;15.60;99.90;;;;;;5016725;28;20657;-65
2022/08/19 03:39:10;;;;;;;24.40;19.35;;;15.50;99.90;;;;;;5016448;28;20574;-65
2022/08/19 03:41:40;;;;;;;28.52;20.95;;;15.50;99.90;;;;;;5016589;28;20712;-65
2022/08/19 03:44:07;;;;;;;26.58;20.85;;;15.40;99.90;;;;;;5016533;28;20176;-65
2022/08/19 03:46:34;;;;;;;26.15;20.00;;;15.40;99.90;;;;;;4998803;28;20179;-65
2022/08/19 03:49:03;;;;;;;25.83;19.65;;;15.30;99.90;;;;;;5016313;28;20633;-65
2022/08/19 03:51:31;;;;;;;24.00;18.60;;;15.30;99.90;;;;;;5016148;28;20199;-65
2022/08/19 03:54:00;;;;;;;25.08;19.20;;;15.30;99.90;;;;;;5016279;28;20218;-65
2022/08/19 03:56:30;;;;;;;26.17;19.02;;;15.30;99.90;;;;;;5016049;28;20188;-65
2022/08/19 03:58:57;;;;;;;26.42;19.48;;;15.30;99.90;;;;;;5015996;28;20200;-65
2022/08/19 04:01:26;;;;;;;26.00;19.63;;;15.40;99.90;;;;;;5015915;28;20653;-65
2022/08/19 04:03:53;;;;;;;24.75;19.00;;;15.40;99.90;;;;;;4998380;28;20186;-65
2022/08/19 04:06:22;;;;;;;25.48;18.92;;;15.40;99.90;;;;;;5015497;28;20179;-64
2022/08/19 04:08:56;;;;;;;23.98;18.90;;;15.40;99.90;;;;;;4998297;28;20230;-65
2022/08/19 04:11:27;;;;;;;22.23;16.92;;;15.40;99.90;;;;;;5016047;28;20688;-65
2022/08/19 04:13:54;;;;;;;21.92;17.95;;;15.40;99.90;;;;;;4998186;28;20184;-65
2022/08/19 04:16:28;;;;;;;22.58;18.08;;;15.40;99.90;;;;;;5015741;28;20182;-65
2022/08/19 04:18:59;;;;;;;22.58;17.55;;;15.30;99.90;;;;;;4997996;28;20200;-65
2022/08/19 04:21:27;;;;;;;24.13;17.92;;;15.30;99.90;;;;;;5015385;28;20215;-65
2022/08/19 04:23:54;;;;;;;25.85;20.02;;;15.30;99.90;;;;;;5015839;28;20175;-67
2022/08/19 04:26:24;;;;;;;26.85;19.35;;;15.20;99.90;;;;;;5015518;28;20724;-67
2022/08/19 04:28:51;;;;;;;25.30;18.25;;;15.20;99.90;;;;;;5015896;28;20218;-67
2022/08/19 04:31:21;;;;;;;25.13;19.10;;;15.20;99.90;;;;;;5015688;28;20261;-67
2022/08/19 04:33:47;;;;;;;24.05;19.83;;;15.20;99.90;;;;;;4997896;28;20329;-67
2022/08/19 04:36:20;;;;;;;23.17;18.65;;;15.30;99.90;;;;;;5014991;28;20587;-66
2022/08/19 04:38:47;;;;;;;25.70;19.95;;;15.30;99.90;;;;;;4997776;28;20690;-67
2022/08/19 04:44:12;;;;;;;25.05;19.05;;;15.40;99.90;;;;;;4982478;28;20184;-66
2022/08/19 04:46:38;;;;;;;25.67;19.77;;;15.40;99.90;;;;;;4997641;28;20176;-67
2022/08/19 04:49:06;;;;;;;26.10;21.10;;;15.40;99.90;;;;;;5015173;28;20179;-66
2022/08/19 04:51:33;;;;;;;28.83;21.58;;;15.40;99.90;;;;;;5014706;28;20204;-67
2022/08/19 04:54:00;;;;;;;27.20;19.83;;;15.40;99.90;;;;;;5015567;28;20190;-72
2022/08/19 04:56:26;;;;;;;27.83;20.85;;;15.40;99.90;;;;;;5014968;28;20191;-66
2022/08/19 04:58:55;;;;;;;25.65;20.13;;;15.40;99.90;;;;;;4997568;28;20255;-66
2022/08/19 05:01:23;;;;;;;28.83;21.77;;;15.40;99.90;;;;;;4997292;28;20286;-66
2022/08/19 05:03:50;;;;;;;27.52;19.55;;;15.40;99.90;;;;;;5014801;28;20665;-66
2022/08/19 05:06:18;;;;;;;26.10;19.40;;;15.40;99.90;;;;;;4997222;28;20175;-66
2022/08/19 05:08:45;;;;;;;26.95;19.42;;;15.50;99.90;;;;;;5015157;28;20520;-66
2022/08/19 05:11:14;;;;;;;24.23;19.77;;;15.50;99.90;;;;;;5015190;28;20202;-66
2022/08/19 05:13:40;;;;;;;25.38;20.67;;;15.50;99.90;;;;;;5014907;28;20723;-66
2022/08/19 05:16:06;;;;;;;27.90;20.38;;;15.50;99.90;;;;;;4997568;28;20188;-66
2022/08/19 05:24:08;;;;;;;25.48;19.52;;;15.50;99.90;;;;;;5015542;28;20585;-66
2022/08/19 05:26:35;;;;;;;27.08;20.42;;;15.40;99.90;;;;;;5015872;28;20180;-66
2022/08/19 05:29:00;;;;;;;25.10;19.80;;;15.40;99.90;;;;;;5015982;28;20604;-67
2022/08/19 05:31:26;;;;;;;26.75;19.88;;;15.40;99.90;;;;;;5015353;28;20684;-67
2022/08/19 05:33:52;;;;;;;26.00;20.10;;;15.40;99.90;;;;;;4997214;28;20176;-67
2022/08/19 05:36:19;;;;;;;25.25;19.85;;;15.40;99.90;;;;;;4996852;28;20271;-66
2022/08/19 05:38:45;;;;;;;26.58;19.40;;;15.30;99.90;;;;;;5014800;28;20206;-66
2022/08/19 05:41:17;;;;;;;28.25;20.88;;;15.30;99.90;;;;;;5015020;28;20195;-66
2022/08/19 05:43:42;;;;;;;25.13;19.10;;;15.40;99.90;;;;;;4997181;28;20613;-66
2022/08/19 05:46:18;;;;;;;26.63;21.02;;;15.50;99.90;;;;;;5014450;28;20264;-66
2022/08/19 05:48:44;;;;;;;24.73;20.38;;;15.60;99.90;;;;;;4996307;28;20190;-66
2022/08/19 05:51:10;;;;;;;23.50;19.25;;;15.60;99.90;;;;;;5014131;28;20625;-66
2022/08/19 05:53:36;;;;;;;24.13;19.70;;;15.70;99.90;;;;;;5014335;28;20250;-66
2022/08/19 05:56:10;;;;;;;25.05;19.90;;;15.80;99.90;;;;;;4996558;28;20242;-67
2022/08/19 05:58:37;;;;;;;27.17;20.55;;;15.80;99.90;;;;;;5014381;28;20661;-66
2022/08/19 06:01:05;;;;;;;29.75;20.75;;;15.90;99.90;;;;;;5014106;28;20245;-66
2022/08/19 06:03:33;;;;;;;28.85;22.25;;;16.00;99.90;;;;;;5014186;28;20176;-66
2022/08/19 06:05:59;;;;;;;31.45;21.75;;;16.00;99.90;;;;;;5013878;28;20259;-66
2022/08/19 06:08:28;;;;;;;29.05;21.60;;;16.10;99.90;;;;;;5014086;28;20199;-66
2022/08/19 06:10:54;;;;;;;31.05;23.15;;;16.20;99.90;;;;;;5014097;28;20200;-66
2022/08/19 06:13:22;;;;;;;29.55;22.60;;;16.10;99.90;;;;;;5014095;28;20282;-66
2022/08/19 06:15:48;;;;;;;30.30;24.70;;;16.20;99.90;;;;;;5014429;28;20490;-66
2022/08/19 06:18:15;;;;;;;32.47;22.40;;;16.20;99.90;;;;;;5013935;28;20199;-66
2022/08/19 06:20:41;;;;;;;30.45;22.70;;;16.30;99.90;;;;;;5013745;28;20195;-66
2022/08/19 06:23:08;;;;;;;32.50;22.50;;;16.30;99.90;;;;;;5014476;28;20175;-66
2022/08/19 06:25:35;;;;;;;31.67;23.27;;;16.30;99.90;;;;;;4996103;28;20230;-66
2022/08/19 06:28:01;;;;;;;35.85;24.40;;;16.30;99.90;;;;;;4996308;28;20188;-67
2022/08/19 06:30:27;;;;;;;31.13;23.45;;;16.40;99.90;;;;;;4995843;28;20204;-67
2022/08/19 06:32:53;;;;;;;29.80;24.35;;;16.40;99.90;;;;;;5013632;28;20188;-67
2022/08/19 06:35:19;;;;;;;35.50;25.88;;;16.50;99.90;;;;;;5013694;28;20189;-66
2022/08/19 06:37:45;;;;;;;33.22;24.63;;;16.40;99.90;;;;;;5013576;28;20674;-66
2022/08/19 06:40:12;;;;;;;33.00;23.58;;;16.50;99.90;;;;;;5013674;28;20298;-66
2022/08/19 06:42:38;;;;;;;36.35;24.05;;;16.50;99.90;;;;;;5014051;28;20168;-66
2022/08/19 06:45:05;;;;;;;32.10;23.60;;;16.60;99.90;;;;;;4996174;28;20175;-67
2022/08/19 06:47:34;;;;;;;34.97;24.10;;;16.60;99.90;;;;;;4996111;28;20667;-66
2022/08/19 06:50:02;;;;;;;30.00;23.10;;;16.70;99.90;;;;;;5013989;28;20226;-66
2022/08/19 06:52:29;;;;;;;34.38;25.95;;;16.80;99.90;;;;;;5013866;28;20192;-66
2022/08/19 06:54:56;;;;;;;31.45;24.63;;;16.80;99.90;;;;;;5013515;28;20226;-66
2022/08/19 06:57:22;;;;;;;32.70;24.63;;;16.90;99.90;;;;;;4995717;28;20282;-66
2022/08/19 06:59:48;;;;;;;33.30;24.80;;;17.00;99.90;;;;;;5014002;28;20187;-66
2022/08/19 07:02:14;;;;;;;33.05;25.67;;;17.00;99.90;;;;;;5017490;28;20191;-66
2022/08/19 07:04:40;;;;;;;35.65;26.02;;;17.00;99.90;;;;;;5017239;28;20160;-67
2022/08/19 07:07:09;;;;;;;36.08;25.17;;;17.20;99.90;;;;;;5016996;28;20175;-66
2022/08/19 07:09:37;;;;;;;37.13;25.58;;;17.20;99.90;;;;;;5017737;28;20156;-66
2022/08/19 07:12:04;;;;;;;31.08;22.38;;;17.40;99.90;;;;;;5017159;28;20597;-66
2022/08/19 07:14:30;;;;;;;32.83;23.98;;;17.60;99.90;;;;;;5017197;28;20187;-66
2022/08/19 07:16:56;;;;;;;34.00;23.15;;;17.70;99.90;;;;;;5017557;28;20160;-65
2022/08/19 07:19:26;;;;;;;29.80;21.80;;;17.80;99.90;;;;;;4999218;28;20571;-65
2022/08/19 07:21:54;;;;;;;33.13;23.75;;;18.00;99.90;;;;;;5016654;28;20199;-65
2022/08/19 07:24:23;;;;;;;32.60;22.38;;;18.10;99.90;;;;;;5017214;28;20620;-65
2022/08/19 07:26:51;;;;;;;30.80;22.33;;;18.30;99.90;;;;;;4999142;28;20180;-65
2022/08/19 07:29:19;;;;;;;34.50;23.85;;;18.60;99.90;;;;;;5017160;28;20526;-64
2022/08/19 07:31:45;;;;;;;30.02;22.65;;;18.80;99.90;;;;;;5016709;28;20199;-65
2022/08/19 07:34:13;;;;;;;33.97;22.95;;;19.00;99.90;;;;;;4999107;28;20230;-66
2022/08/19 07:36:41;;;;;;;28.23;21.02;;;19.20;99.90;;;;;;5016424;28;20645;-66
2022/08/19 07:39:14;;;;;;;34.47;22.75;;;19.30;99.90;;;;;;5016946;28;20203;-65
2022/08/19 07:41:41;;;;;;;29.45;21.98;;;19.50;99.90;;;;;;5016855;28;20195;-66
2022/08/19 07:44:09;;;;;;;24.27;19.38;;;19.70;99.90;;;;;;5016542;28;20262;-65
2022/08/19 07:46:38;;;;;;;32.15;22.27;;;19.90;99.90;;;;;;5016914;28;20171;-68
2022/08/19 07:49:06;;;;;;;29.80;22.38;;;20.10;99.90;;;;;;4998831;28;20194;-68
2022/08/19 07:51:31;;;;;;;28.02;20.85;;;20.30;99.90;;;;;;5016183;28;20195;-68
2022/08/19 07:53:57;;;;;;;27.83;20.15;;;20.40;99.90;;;;;;5016827;28;20286;-69
2022/08/19 07:56:23;;;;;;;31.30;20.35;;;20.50;99.90;;;;;;5016395;28;20207;-68
2022/08/19 07:58:51;;;;;;;24.75;18.10;;;20.60;99.90;;;;;;4998983;28;20246;-65
2022/08/19 08:01:22;;;;;;;25.50;19.98;;;20.80;99.90;;;;;;4998614;28;20196;-65
2022/08/19 08:09:23;;;;;;;26.20;19.40;;;21.00;99.90;;;;;;5016480;28;20167;-65
2022/08/19 08:11:51;;;;;;;25.65;17.60;;;21.10;99.90;;;;;;5016051;28;20191;-65
2022/08/19 08:14:48;;;;;;;24.50;17.90;;;21.30;99.90;;;;;;5016168;28;20164;-66
2022/08/19 08:17:20;;;;;;;23.35;16.77;;;21.40;99.90;;;;;;5016284;28;20176;-67
2022/08/19 08:19:46;;;;;;;23.15;18.08;;;21.40;99.90;;;;;;5016375;28;20565;-66
2022/08/19 08:25:08;;;;;;;23.98;17.75;;;21.50;99.90;;;;;;4985220;28;20565;-66
2022/08/19 08:27:42;;;;;;;22.60;17.05;;;21.60;99.90;;;;;;5016393;28;20179;-70
2022/08/19 08:30:11;;;;;;;23.35;17.50;;;21.70;99.90;;;;;;5018397;28;20528;-73
2022/08/19 08:32:39;;;;;;;25.17;17.27;;;21.70;99.90;;;;;;5018129;28;20192;-73
2022/08/19 08:35:11;;;;;;;25.00;16.40;;;21.80;99.90;;;;;;5017923;28;20168;-73
2022/08/19 08:37:37;;;;;;;23.27;16.63;;;21.80;99.90;;;;;;5017804;28;20210;-72
2022/08/19 08:40:32;;;;;;;24.80;15.63;;;21.90;99.90;;;;;;5000502;28;20176;-73
2022/08/19 08:43:17;;;;;;;20.85;14.77;;;22.00;99.90;;;;;;4995978;28;20191;-73
2022/08/19 08:45:51;;;;;;;16.27;12.35;;;22.10;99.90;;;;;;5001691;28;20180;-77
2022/08/19 08:48:31;;;;;;;17.83;12.38;;;22.10;99.90;;;;;;5002863;28;20258;-79
2022/08/19 08:50:58;;;;;;;15.27;10.20;;;22.10;99.90;;;;;;5018602;28;20286;-77
2022/08/19 08:53:25;;;;;;;13.65;11.55;;;22.20;99.90;;;;;;5019091;28;20180;-67
2022/08/19 08:55:51;;;;;;;14.63;10.93;;;22.30;99.90;;;;;;5015466;28;20198;-66
2022/08/19 08:58:55;;;;;;;17.02;11.50;;;22.40;99.90;;;;;;5015563;28;20573;-67
2022/08/19 09:01:22;;;;;;;18.00;13.75;;;22.40;99.90;;;;;;5013559;28;20742;-66
2022/08/19 09:03:48;;;;;;;19.58;14.25;;;22.60;99.90;;;;;;4997761;28;20653;-66
2022/08/19 09:06:21;;;;;;;15.35;12.70;;;22.50;99.90;;;;;;5015075;28;20180;-66
2022/08/19 09:09:32;;;;;;;15.13;12.10;;;22.60;99.90;;;;;;5015902;28;20171;-63
2022/08/19 09:12:09;;;;;;;15.52;10.43;;;22.80;99.90;;;;;;4955093;28;20578;-64
2022/08/19 09:14:40;;;;;;;14.80;10.77;;;22.90;99.90;;;;;;4954956;29;20602;-64
2022/08/19 09:17:10;;;;;;;15.57;12.88;;;23.10;99.90;;;;;;4975801;28;20203;-64
2022/08/19 09:19:55;;;;;;;17.17;11.98;;;23.30;99.90;;;;;;5015320;28;20703;-64
2022/08/19 09:22:21;;;;;;;17.70;13.20;;;23.50;99.90;;;;;;5015078;28;20196;-64
2022/08/19 09:24:50;;;;;;;16.77;11.32;;;23.50;99.90;;;;;;5014978;28;20176;-65
2022/08/19 09:27:16;;;;;;;14.15;12.63;;;23.60;99.90;;;;;;4998079;28;20603;-65
2022/08/19 09:29:42;;;;;;;16.92;12.63;;;23.70;99.90;;;;;;5015612;28;20186;-66
2022/08/19 09:32:08;;;;;;;13.05;11.57;;;24.00;99.90;;;;;;5015378;28;20196;-66
2022/08/19 09:34:33;;;;;;;11.02;9.23;;;23.90;99.90;;;;;;5015189;28;20167;-66
2022/08/19 09:36:59;;;;;;;9.98;8.13;;;23.70;99.90;;;;;;5014887;28;20649;-66
2022/08/19 09:39:25;;;;;;;15.30;9.45;;;23.60;99.90;;;;;;5015294;28;20231;-66
2022/08/19 09:41:52;;;;;;;10.60;8.65;;;23.50;99.90;;;;;;5014704;28;20196;-66
2022/08/19 09:44:20;;;;;;;14.50;11.38;;;23.70;99.90;;;;;;5014566;28;20226;-66
2022/08/19 09:46:49;;;;;;;13.52;9.85;;;23.90;99.90;;;;;;5015026;28;20625;-66
2022/08/19 09:49:19;;;;;;;12.27;9.35;;;23.90;99.90;;;;;;5014452;28;20259;-66
2022/08/19 09:51:49;;;;;;;14.23;9.82;;;24.00;99.90;;;;;;5014290;28;20200;-66
2022/08/19 09:54:15;;;;;;;15.60;12.13;;;23.80;99.90;;;;;;5014725;28;20222;-66
2022/08/19 09:56:41;;;;;;;13.88;11.65;;;23.60;99.90;;;;;;5014337;28;20199;-66
2022/08/19 09:59:07;;;;;;;15.20;12.15;;;23.80;99.90;;;;;;5014267;28;20562;-66
2022/08/19 10:01:33;;;;;;;14.95;13.35;;;23.80;99.90;;;;;;4997112;28;20210;-66
2022/08/19 10:04:00;;;;;;;20.35;12.98;;;23.90;99.90;;;;;;5014701;28;20278;-66
2022/08/19 10:06:32;;;;;;;17.38;15.20;;;24.10;99.90;;;;;;5014445;28;20227;-64
2022/08/19 10:08:59;;;;;;;18.50;15.27;;;24.10;99.90;;;;;;5014897;28;20152;-64
2022/08/19 10:11:26;;;;;;;13.35;11.68;;;23.90;99.90;;;;;;5014367;28;20207;-64
2022/08/19 10:13:52;;;;;;;14.55;12.85;;;23.70;99.90;;;;;;4996720;28;20192;-64
2022/08/19 10:16:22;;;;;;;15.13;12.63;;;23.70;99.90;;;;;;5014395;28;20625;-64
2022/08/19 10:18:48;;;;;;;15.35;11.75;;;23.70;99.90;;;;;;4996580;28;20207;-64
2022/08/19 10:21:19;;;;;;;15.38;12.32;;;24.00;99.90;;;;;;5013970;28;20241;-64
2022/08/19 10:23:49;;;;;;;13.55;11.30;;;24.20;99.90;;;;;;5014603;28;20156;-64
2022/08/19 10:26:19;;;;;;;14.68;11.43;;;24.50;99.90;;;;;;4996985;28;20275;-64
2022/08/19 10:28:46;;;;;;;17.92;13.02;;;24.80;99.90;;;;;;5014843;28;20164;-64
2022/08/19 10:31:22;;;;;;;16.13;13.20;;;25.00;99.90;;;;;;5014523;28;20196;-64
2022/08/19 10:33:49;;;;;;;13.95;12.45;;;25.00;99.90;;;;;;5013775;28;20585;-64
2022/08/19 10:36:18;;;;;;;13.00;9.38;;;25.00;99.90;;;;;;5016290;28;20182;-67
2022/08/19 10:38:46;;;;;;;15.23;12.18;;;24.80;99.90;;;;;;5017557;28;20206;-67
2022/08/19 10:41:15;;;;;;;14.40;12.50;;;24.60;99.90;;;;;;5018388;28;20619;-66
2022/08/19 10:43:41;;;;;;;16.88;15.07;;;24.50;99.90;;;;;;4999970;28;20180;-65
2022/08/19 10:46:10;;;;;;;18.75;14.85;;;24.60;99.90;;;;;;5000583;28;20179;-65
2022/08/19 10:48:35;;;;;;;15.05;13.27;;;24.80;99.90;;;;;;5017870;28;20167;-65
2022/08/19 10:53:46;;;;;;;19.75;17.00;;;24.90;99.90;;;;;;5017805;28;20279;-65
2022/08/19 10:58:57;;;;;;;23.67;18.45;;;24.60;99.90;;;;;;5017404;28;20207;-65
2022/08/19 11:01:24;;;;;;;18.95;15.68;;;24.40;99.90;;;;;;5017481;28;20188;-65
2022/08/19 11:03:50;;;;;;;20.98;15.57;;;24.30;99.90;;;;;;5017351;28;20199;-65
2022/08/19 11:06:16;;;;;;;16.40;13.75;;;24.20;99.90;;;;;;5000019;28;20182;-66
2022/08/19 11:08:45;;;;;;;15.88;12.48;;;24.30;99.90;;;;;;4999808;28;20270;-66
2022/08/19 11:11:12;;;;;;;12.32;10.82;;;24.30;99.90;;;;;;4999531;28;20200;-69
2022/08/19 11:13:43;;;;;;;12.85;9.82;;;24.30;99.90;;;;;;5017196;28;20270;-66
2022/08/19 11:16:13;;;;;;;14.55;10.07;;;24.40;99.90;;;;;;5017345;28;20243;-65
2022/08/19 11:18:43;;;;;;;13.85;12.10;;;24.60;99.90;;;;;;5016977;28;20253;-66
2022/08/19 11:21:13;;;;;;;13.25;11.75;;;24.80;99.90;;;;;;5016937;28;20184;-66
2022/08/19 11:23:39;;;;;;;19.20;15.55;;;24.90;99.90;;;;;;4999362;28;20305;-66
2022/08/19 11:26:05;;;;;;;17.92;14.65;;;25.00;99.90;;;;;;5016866;28;20168;-65
2022/08/19 11:28:31;;;;;;;16.58;13.07;;;25.20;99.90;;;;;;4999223;28;20184;-65
2022/08/19 11:30:57;;;;;;;14.85;12.73;;;25.20;99.90;;;;;;5016718;28;20564;-65
2022/08/19 11:33:25;;;;;;;17.98;14.55;;;25.60;99.90;;;;;;4999160;28;20199;-65
2022/08/19 11:35:50;;;;;;;17.05;14.45;;;26.00;99.90;;;;;;5016734;28;20156;-67
2022/08/19 11:38:18;;;;;;;16.25;12.80;;;26.30;99.90;;;;;;5016435;28;20672;-66
2022/08/19 11:40:44;;;;;;;16.17;12.15;;;26.30;99.90;;;;;;5016597;28;20605;-66
2022/08/19 11:43:09;;;;;;;13.35;10.93;;;26.30;99.90;;;;;;5016639;28;20579;-65
2022/08/19 11:45:35;;;;;;;15.93;11.50;;;26.30;99.90;;;;;;4998899;28;20262;-65
2022/08/19 11:48:01;;;;;;;12.05;9.57;;;26.30;99.90;;;;;;4997774;28;20291;-65
2022/08/19 11:50:27;;;;;;;15.15;12.63;;;26.40;99.90;;;;;;4998695;28;20207;-66
2022/08/19 11:52:55;;;;;;;12.38;10.77;;;26.30;99.90;;;;;;4998587;28;20267;-66
2022/08/19 11:55:20;;;;;;;11.45;10.25;;;26.30;99.90;;;;;;4998803;28;20176;-66
2022/08/19 11:57:46;;;;;;;11.82;9.88;;;26.10;99.90;;;;;;5016276;28;20569;-66
2022/08/19 12:00:13;;;;;;;11.07;9.60;;;26.00;99.90;;;;;;5016204;28;20182;-66
2022/08/19 12:02:40;;;;;;;9.32;8.07;;;26.10;99.90;;;;;;5031629;28;20176;-66
2022/08/19 12:05:06;;;;;;;9.02;7.13;;;26.30;99.90;;;;;;5016478;28;20156;-66
2022/08/19 12:07:33;;;;;;;8.05;6.82;;;26.80;99.90;;;;;;5015872;28;20184;-66
2022/08/19 12:10:00;;;;;;;14.43;11.55;;;27.20;99.90;;;;;;5016529;28;20153;-66
2022/08/19 12:12:27;;;;;;;12.75;11.02;;;27.20;99.90;;;;;;4998607;28;20191;-66
2022/08/19 12:14:56;;;;;;;13.48;10.55;;;27.20;99.90;;;;;;5016647;28;20611;-66
2022/08/19 12:17:26;;;;;;;11.65;10.38;;;26.90;99.90;;;;;;4999157;28;20168;-66
2022/08/19 12:19:53;;;;;;;12.63;9.77;;;26.90;99.90;;;;;;5017007;28;20675;-66
2022/08/19 12:22:20;;;;;;;11.55;9.65;;;26.80;99.90;;;;;;5015835;28;20196;-66
2022/08/19 12:24:47;;;;;;;10.35;8.77;;;26.50;99.90;;;;;;5015881;28;20195;-66
2022/08/19 12:27:13;;;;;;;12.90;10.10;;;26.40;99.90;;;;;;5015974;28;20152;-66
2022/08/19 12:29:39;;;;;;;10.48;9.13;;;26.10;99.90;;;;;;5016452;28;20254;-66
2022/08/19 12:32:09;;;;;;;12.85;9.38;;;26.10;99.90;;;;;;5015679;28;20210;-66
2022/08/19 12:34:36;;;;;;;14.63;10.07;;;26.20;99.90;;;;;;5016460;28;20156;-65
2022/08/19 12:37:04;;;;;;;12.43;8.80;;;26.50;99.90;;;;;;4997972;28;20184;-67
2022/08/19 12:39:34;;;;;;;13.15;9.88;;;26.60;99.90;;;;;;5015553;28;20565;-69
2022/08/19 12:41:59;;;;;;;20.33;13.45;;;26.30;99.90;;;;;;5015445;28;20188;-66
2022/08/19 12:44:25;;;;;;;13.60;11.52;;;26.00;99.90;;;;;;5015381;28;20661;-67
2022/08/19 12:46:51;;;;;;;25.02;17.42;;;26.00;99.90;;;;;;4997717;28;20187;-64
2022/08/19 12:49:17;;;;;;;18.00;14.82;;;26.30;99.90;;;;;;4997638;28;20180;-64
2022/08/19 12:51:42;;;;;;;17.42;14.85;;;26.80;99.90;;;;;;4997344;28;20210;-65
2022/08/19 12:54:08;;;;;;;16.77;13.02;;;27.20;99.90;;;;;;5015255;28;20661;-65
2022/08/19 12:56:34;;;;;;;16.08;14.48;;;27.40;99.90;;;;;;5014934;28;20202;-65